sensor_id;sensor_type;location;lat;lon;timestamp;pressure;altitude;pressure_sealevel;temperature;humidity
3832;BME280;12460;42.662;23.288;2024-03-23T00:58:45;94590.69;;;7.34;48.47
3832;BME280;12460;42.662;23.288;2024-03-23T01:13:46;94578.28;;;7.22;48.17
3832;BME280;12460;42.662;23.288;2024-03-23T01:28:47;94568.34;;;7.14;48.64
3832;BME280;12460;42.662;23.288;2024-03-23T01:43:47;94579.00;;;6.94;48.44
3832;BME280;12460;42.662;23.288;2024-03-23T01:58:48;94579.16;;;6.89;48.07
3832;BME280;12460;42.662;23.288;2024-03-23T02:13:49;94586.91;;;6.83;48.53
3832;BME280;12460;42.662;23.288;2024-03-23T02:28:50;94594.97;;;6.86;49.11
3832;BME280;12460;42.662;23.288;2024-03-23T02:43:51;94596.66;;;6.69;49.40
3832;BME280;12460;42.662;23.288;2024-03-23T02:58:52;94582.50;;;6.67;49.40
3832;BME280;12460;42.662;23.288;2024-03-23T03:13:52;94592.78;;;6.51;49.94
3832;BME280;12460;42.662;23.288;2024-03-23T03:28:53;94592.06;;;6.38;50.42
3832;BME280;12460;42.662;23.288;2024-03-23T03:43:54;94591.91;;;6.22;50.59
3832;BME280;12460;42.662;23.288;2024-03-23T03:58:56;94602.03;;;6.12;51.06
3832;BME280;12460;42.662;23.288;2024-03-23T04:13:56;94590.78;;;6.05;51.37
3832;BME280;12460;42.662;23.288;2024-03-23T04:28:57;94593.47;;;5.97;51.43
3832;BME280;12460;42.662;23.288;2024-03-23T04:43:58;94599.25;;;6.12;50.81
3832;BME280;12460;42.662;23.288;2024-03-23T04:58:59;94594.94;;;11.13;42.72
3832;BME280;12460;42.662;23.288;2024-03-23T05:14:02;94604.91;;;14.30;36.27
3832;BME280;12460;42.662;23.288;2024-03-23T05:29:04;94593.88;;;17.22;31.46
3832;BME280;12460;42.662;23.288;2024-03-23T05:44:05;94584.66;;;18.63;29.45
3832;BME280;12460;42.662;23.288;2024-03-23T05:59:06;94590.16;;;18.84;28.60
3832;BME280;12460;42.662;23.288;2024-03-23T06:14:07;94576.56;;;19.21;28.28
3832;BME280;12460;42.662;23.288;2024-03-23T06:29:08;94563.50;;;20.37;27.19
3832;BME280;12460;42.662;23.288;2024-03-23T06:44:09;94560.06;;;20.67;26.16
3832;BME280;12460;42.662;23.288;2024-03-23T06:59:10;94577.75;;;19.30;27.37
3832;BME280;12460;42.662;23.288;2024-03-23T07:14:11;94567.59;;;17.80;28.89
3832;BME280;12460;42.662;23.288;2024-03-23T07:29:12;94550.28;;;17.76;29.17
3832;BME280;12460;42.662;23.288;2024-03-23T07:44:13;94529.31;;;19.05;27.46
3832;BME280;12460;42.662;23.288;2024-03-23T07:59:14;94530.50;;;20.34;26.14
3832;BME280;12460;42.662;23.288;2024-03-23T08:14:15;94521.47;;;20.82;25.58
3832;BME280;12460;42.662;23.288;2024-03-23T08:29:16;94502.59;;;20.91;25.02
3832;BME280;12460;42.662;23.288;2024-03-23T08:44:17;94498.22;;;22.63;23.55
3832;BME280;12460;42.662;23.288;2024-03-23T08:59:18;94473.09;;;23.34;23.00
3832;BME280;12460;42.662;23.288;2024-03-23T09:14:22;94467.56;;;22.68;23.30
3832;BME280;12460;42.662;23.288;2024-03-23T09:29:22;94439.41;;;23.74;22.20
3832;BME280;12460;42.662;23.288;2024-03-23T09:44:24;94407.63;;;24.96;21.64
3832;BME280;12460;42.662;23.288;2024-03-23T09:59:26;94379.63;;;25.22;21.21
3832;BME280;12460;42.662;23.288;2024-03-23T10:14:30;94357.91;;;26.50;19.84
3832;BME280;12460;42.662;23.288;2024-03-23T10:29:31;94335.13;;;26.91;19.10
3832;BME280;12460;42.662;23.288;2024-03-23T10:44:32;94292.94;;;26.17;19.11
3832;BME280;12460;42.662;23.288;2024-03-23T10:59:33;94246.84;;;25.10;20.17
3832;BME280;12460;42.662;23.288;2024-03-23T11:14:35;94236.88;;;22.71;21.54
3832;BME280;12460;42.662;23.288;2024-03-23T11:29:36;94222.09;;;23.39;21.57
3832;BME280;12460;42.662;23.288;2024-03-23T11:44:38;94187.66;;;25.03;20.82
3832;BME280;12460;42.662;23.288;2024-03-23T11:59:40;94146.63;;;24.77;20.53
3832;BME280;12460;42.662;23.288;2024-03-23T12:14:42;94122.66;;;25.49;17.41
3832;BME280;12460;42.662;23.288;2024-03-23T12:29:43;94091.38;;;25.38;16.69
3832;BME280;12460;42.662;23.288;2024-03-23T12:44:46;94080.25;;;25.24;16.55
3832;BME280;12460;42.662;23.288;2024-03-23T12:59:47;94068.78;;;24.71;16.43
3832;BME280;12460;42.662;23.288;2024-03-23T13:14:51;94027.91;;;24.21;17.09
3832;BME280;12460;42.662;23.288;2024-03-23T13:29:52;94022.50;;;23.60;17.71
3832;BME280;12460;42.662;23.288;2024-03-23T13:44:53;94004.00;;;22.74;18.04
3832;BME280;12460;42.662;23.288;2024-03-23T13:59:53;93980.25;;;22.09;18.61
3832;BME280;12460;42.662;23.288;2024-03-23T14:14:54;93977.31;;;21.68;19.27
3832;BME280;12460;42.662;23.288;2024-03-23T14:29:55;93968.75;;;21.30;19.52
3832;BME280;12460;42.662;23.288;2024-03-23T14:44:57;93954.69;;;20.99;20.92
3832;BME280;12460;42.662;23.288;2024-03-23T14:59:57;93924.75;;;20.65;21.69
3832;BME280;12460;42.662;23.288;2024-03-23T15:14:59;93917.66;;;20.31;22.66
3832;BME280;12460;42.662;23.288;2024-03-23T15:30:01;93919.13;;;19.98;22.46
3832;BME280;12460;42.662;23.288;2024-03-23T15:45:02;93913.22;;;19.43;22.31
3832;BME280;12460;42.662;23.288;2024-03-23T16:00:04;93912.88;;;18.73;22.25
3832;BME280;12460;42.662;23.288;2024-03-23T16:15:12;93921.34;;;18.12;24.09
3832;BME280;12460;42.662;23.288;2024-03-23T16:30:13;93905.78;;;17.57;25.21
3832;BME280;12460;42.662;23.288;2024-03-23T16:45:14;93895.78;;;17.29;26.10
3832;BME280;12460;42.662;23.288;2024-03-23T17:00:15;93904.09;;;17.11;26.83
3832;BME280;12460;42.662;23.288;2024-03-23T17:15:16;93886.97;;;16.57;27.46
3832;BME280;12460;42.662;23.288;2024-03-23T17:30:21;93912.69;;;16.47;28.83
3832;BME280;12460;42.662;23.288;2024-03-23T17:45:22;93891.25;;;16.19;29.10
3832;BME280;12460;42.662;23.288;2024-03-23T18:00:23;93884.72;;;15.91;29.16
3832;BME280;12460;42.662;23.288;2024-03-23T18:15:24;93883.06;;;15.86;29.37
3832;BME280;12460;42.662;23.288;2024-03-23T18:30:25;93907.31;;;15.89;29.30
3832;BME280;12460;42.662;23.288;2024-03-23T18:45:26;93892.97;;;15.74;29.65
3832;BME280;12460;42.662;23.288;2024-03-23T19:00:27;93887.44;;;15.64;29.83
3832;BME280;12460;42.662;23.288;2024-03-23T19:15:27;93916.53;;;15.65;29.79
3832;BME280;12460;42.662;23.288;2024-03-23T19:30:29;93915.75;;;14.69;32.49
3832;BME280;12460;42.662;23.288;2024-03-23T19:45:30;93907.53;;;13.73;34.73
3832;BME280;12460;42.662;23.288;2024-03-23T20:00:32;93909.75;;;13.75;34.81
3832;BME280;12460;42.662;23.288;2024-03-23T20:15:33;93939.84;;;13.49;35.70
3832;BME280;12460;42.662;23.288;2024-03-23T20:30:34;93946.22;;;13.28;35.77
3832;BME280;12460;42.662;23.288;2024-03-23T20:45:35;93929.34;;;12.88;36.17
3832;BME280;12460;42.662;23.288;2024-03-23T21:00:36;93947.34;;;12.43;37.07
3832;BME280;12460;42.662;23.288;2024-03-23T21:15:37;93965.41;;;12.59;37.19
3832;BME280;12460;42.662;23.288;2024-03-23T21:30:38;93958.63;;;12.43;37.47
3832;BME280;12460;42.662;23.288;2024-03-23T21:45:39;93962.84;;;12.32;37.30
3832;BME280;12460;42.662;23.288;2024-03-23T22:00:40;93958.56;;;12.12;37.89
3832;BME280;12460;42.662;23.288;2024-03-23T22:15:41;93968.22;;;12.00;37.85
3832;BME280;12460;42.662;23.288;2024-03-23T22:31:04;93968.38;;;11.82;39.44
3832;BME280;12460;42.662;23.288;2024-03-23T22:46:05;93982.44;;;11.63;40.46
3832;BME280;12460;42.662;23.288;2024-03-23T23:01:07;93958.56;;;11.45;40.33
3832;BME280;12460;42.662;23.288;2024-03-23T23:16:08;93962.25;;;11.38;40.63
3832;BME280;12460;42.662;23.288;2024-03-23T23:31:09;93935.16;;;11.14;40.12
3832;BME280;12460;42.662;23.288;2024-03-23T23:46:09;93927.91;;;11.20;39.32
